createdAt,value
2017-12-28T00:02:11.296Z,20.20
2017-12-28T00:04:39.173Z,17.75
2017-12-28T00:07:07.054Z,21.20
2017-12-28T00:09:34.903Z,20.00
2017-12-28T00:12:02.789Z,18.25
2017-12-28T00:14:30.652Z,24.67
2017-12-28T00:16:58.538Z,26.40
2017-12-28T00:19:26.384Z,26.70
2017-12-28T00:21:54.276Z,23.30
2017-12-28T00:24:22.155Z,23.42
2017-12-28T00:26:50.012Z,34.30
2017-12-28T00:29:23.275Z,25.80
2017-12-28T00:31:51.148Z,27.53
2017-12-28T00:34:19.016Z,30.40
2017-12-28T00:36:46.900Z,32.70
2017-12-28T00:39:14.745Z,29.90
2017-12-28T00:41:42.689Z,27.60
2017-12-28T00:44:10.598Z,30.58
2017-12-28T00:46:38.475Z,22.92
2017-12-28T00:49:06.328Z,27.67
2017-12-28T00:51:34.200Z,27.37
2017-12-28T00:54:02.083Z,30.85
2017-12-28T00:56:29.995Z,27.27
2017-12-28T00:59:17.972Z,26.90
2017-12-28T01:01:45.865Z,29.08
2017-12-28T01:04:14.017Z,32.47
2017-12-28T01:06:42.352Z,29.55
2017-12-28T01:09:10.656Z,25.90
2017-12-28T01:11:38.597Z,28.07
2017-12-28T01:14:06.529Z,32.43
2017-12-28T01:16:34.392Z,25.00
2017-12-28T01:19:02.284Z,27.23
2017-12-28T01:21:30.167Z,30.33
2017-12-28T01:23:58.064Z,29.77
2017-12-28T01:26:25.946Z,30.10
2017-12-28T01:28:53.812Z,27.23
2017-12-28T01:31:21.692Z,23.15
2017-12-28T01:33:49.632Z,25.00
2017-12-28T01:36:17.490Z,27.00
2017-12-28T01:38:49.276Z,33.40
2017-12-28T01:41:17.220Z,30.35
2017-12-28T01:43:45.085Z,30.52
2017-12-28T01:46:12.975Z,25.48
2017-12-28T01:48:40.881Z,30.88
2017-12-28T01:51:08.762Z,31.73
2017-12-28T01:53:36.631Z,31.08
2017-12-28T01:56:04.483Z,27.90
2017-12-28T01:58:32.350Z,26.67
2017-12-28T02:01:00.218Z,32.70
2017-12-28T02:03:28.088Z,32.25
2017-12-28T02:05:55.981Z,32.38
2017-12-28T02:08:23.832Z,28.95
2017-12-28T02:10:51.742Z,31.62
2017-12-28T02:13:19.600Z,31.58
2017-12-28T02:15:47.484Z,28.87
2017-12-28T02:18:15.333Z,31.85
2017-12-28T02:20:43.176Z,36.20
2017-12-28T02:23:11.131Z,36.17
2017-12-28T02:25:38.979Z,28.67
2017-12-28T02:28:06.890Z,31.20
2017-12-28T02:30:34.746Z,29.90
2017-12-28T02:33:02.611Z,34.27
2017-12-28T02:35:30.471Z,30.62
2017-12-28T02:37:58.345Z,38.30
2017-12-28T02:40:26.230Z,38.95
2017-12-28T02:42:54.140Z,32.92
2017-12-28T02:45:22.018Z,42.80
2017-12-28T02:47:49.906Z,38.65
2017-12-28T02:50:17.837Z,35.97
2017-12-28T02:52:45.772Z,41.15
2017-12-28T02:55:13.670Z,34.03
2017-12-28T02:57:41.567Z,41.60
2017-12-28T03:00:09.412Z,37.63
2017-12-28T03:02:37.275Z,33.53
2017-12-28T03:05:05.133Z,41.35
2017-12-28T03:07:32.982Z,40.53
2017-12-28T03:10:00.833Z,40.13
2017-12-28T03:12:28.691Z,35.28
2017-12-28T03:14:56.551Z,33.67
2017-12-28T03:17:24.420Z,47.62
2017-12-28T03:19:52.280Z,45.03
2017-12-28T03:22:20.154Z,29.73
2017-12-28T03:24:48.017Z,33.28
2017-12-28T03:27:15.925Z,41.20
2017-12-28T03:29:43.854Z,33.22
2017-12-28T03:32:11.758Z,39.38
2017-12-28T03:34:39.626Z,42.80
2017-12-28T03:37:07.492Z,38.65
2017-12-28T03:39:35.371Z,41.08
2017-12-28T03:42:03.247Z,46.97
2017-12-28T03:44:31.108Z,42.50
2017-12-28T03:46:58.994Z,53.15
2017-12-28T03:49:26.858Z,42.10
2017-12-28T03:51:54.710Z,49.90
2017-12-28T03:54:22.586Z,42.90
2017-12-28T03:56:50.443Z,64.53
2017-12-28T03:59:18.318Z,53.75
2017-12-28T04:01:46.171Z,47.13
2017-12-28T04:04:14.027Z,50.55
2017-12-28T04:06:41.880Z,47.58
2017-12-28T04:09:09.744Z,31.62
2017-12-28T04:11:37.588Z,44.80
2017-12-28T04:14:05.460Z,37.15
2017-12-28T04:16:33.305Z,44.53
2017-12-28T04:19:01.155Z,34.50
2017-12-28T04:21:29.023Z,36.97
2017-12-28T04:23:57.616Z,37.22
2017-12-28T04:26:25.526Z,33.88
2017-12-28T04:28:53.399Z,43.25
2017-12-28T04:31:21.263Z,45.80
2017-12-28T04:33:49.120Z,37.63
2017-12-28T04:36:16.986Z,35.13
2017-12-28T04:38:44.850Z,37.50
2017-12-28T04:41:12.948Z,30.15
2017-12-28T04:43:40.836Z,35.72
2017-12-28T04:46:08.726Z,30.48
2017-12-28T04:48:36.621Z,26.35
2017-12-28T04:51:04.492Z,28.30
2017-12-28T04:53:32.415Z,25.55
2017-12-28T04:56:00.308Z,15.93
2017-12-28T04:58:28.216Z,17.35
2017-12-28T05:00:56.111Z,23.80
2017-12-28T05:03:23.975Z,11.77
2017-12-28T05:05:51.857Z,8.15
2017-12-28T05:08:19.711Z,3.45
2017-12-28T05:10:47.677Z,4.40
2017-12-28T05:13:15.572Z,5.68
2017-12-28T05:15:43.448Z,4.97
2017-12-28T05:18:11.324Z,5.50
2017-12-28T05:20:39.192Z,3.22
2017-12-28T05:23:07.053Z,2.70
2017-12-28T05:25:34.920Z,1.70
2017-12-28T05:28:02.806Z,2.83
2017-12-28T05:30:30.735Z,2.65
2017-12-28T05:32:58.643Z,1.70
2017-12-28T05:35:26.511Z,2.83
2017-12-28T05:37:54.382Z,1.10
2017-12-28T05:40:22.289Z,10.52
2017-12-28T05:42:50.196Z,4.00
2017-12-28T05:45:18.076Z,4.45
2017-12-28T05:47:45.972Z,6.50
2017-12-28T05:50:13.839Z,3.25
2017-12-28T05:52:41.745Z,2.05
2017-12-28T05:55:09.640Z,4.25
2017-12-28T05:57:37.579Z,4.53
2017-12-28T06:00:05.452Z,11.60
2017-12-28T06:02:33.323Z,3.05
2017-12-28T06:05:01.180Z,10.73
2017-12-28T06:07:29.047Z,5.62
2017-12-28T06:09:56.864Z,4.97
2017-12-28T06:12:24.705Z,8.32
2017-12-28T06:14:52.543Z,2.12
2017-12-28T06:20:22.600Z,3.12
2017-12-28T06:22:50.547Z,4.07
2017-12-28T06:25:18.414Z,7.78
2017-12-28T06:27:46.304Z,9.95
2017-12-28T06:30:14.171Z,4.85
2017-12-28T06:32:42.011Z,4.25
2017-12-28T06:35:09.883Z,2.25
2017-12-28T06:37:37.719Z,10.85
2017-12-28T06:40:05.617Z,11.90
2017-12-28T06:42:33.489Z,17.65
2017-12-28T06:45:01.348Z,5.37
2017-12-28T06:47:29.156Z,2.78
2017-12-28T06:49:57.014Z,7.15
2017-12-28T06:52:24.855Z,2.50
2017-12-28T06:54:52.703Z,7.85
2017-12-28T06:57:20.603Z,14.35
2017-12-28T06:59:50.072Z,9.30
2017-12-28T07:02:17.915Z,8.15
2017-12-28T07:04:45.803Z,10.95
2017-12-28T07:07:13.635Z,12.80
2017-12-28T07:09:41.533Z,2.95
2017-12-28T07:12:09.363Z,9.98
2017-12-28T07:14:37.227Z,7.22
2017-12-28T07:17:05.136Z,3.20
2017-12-28T07:19:33.044Z,13.73
2017-12-28T07:22:00.919Z,6.72
2017-12-28T07:24:28.785Z,4.03
2017-12-28T07:26:56.677Z,11.95
2017-12-28T07:29:24.562Z,3.83
2017-12-28T07:31:52.432Z,5.57
2017-12-28T07:34:20.295Z,5.47
2017-12-28T07:36:48.164Z,8.93
2017-12-28T07:39:16.037Z,6.00
2017-12-28T07:41:43.922Z,5.22
2017-12-28T07:44:11.767Z,4.40
2017-12-28T07:46:39.631Z,5.28
2017-12-28T07:49:07.544Z,6.25
2017-12-28T07:51:35.436Z,7.75
2017-12-28T07:54:03.292Z,6.90
2017-12-28T07:56:31.164Z,8.07
2017-12-28T07:58:59.016Z,10.60
2017-12-28T08:01:26.879Z,2.62
2017-12-28T08:03:54.707Z,4.93
2017-12-28T08:06:22.552Z,3.80
2017-12-28T08:08:50.396Z,9.50
2017-12-28T08:11:18.258Z,9.10
2017-12-28T08:13:46.120Z,5.47
2017-12-28T08:16:14.024Z,8.57
2017-12-28T08:18:41.895Z,4.18
2017-12-28T08:21:09.751Z,3.20
2017-12-28T08:23:37.620Z,10.93
2017-12-28T08:26:05.487Z,7.82
2017-12-28T08:28:33.347Z,7.22
2017-12-28T08:31:01.172Z,7.57
2017-12-28T08:33:29.025Z,10.23
2017-12-28T08:35:56.891Z,10.77
2017-12-28T08:38:24.739Z,9.73
2017-12-28T08:40:52.576Z,10.52
2017-12-28T08:43:20.427Z,15.82
2017-12-28T08:45:48.263Z,16.75
2017-12-28T08:48:16.115Z,5.10
2017-12-28T08:50:43.948Z,15.55
2017-12-28T08:53:11.801Z,16.80
2017-12-28T08:55:39.635Z,9.43
2017-12-28T08:58:07.481Z,13.98
2017-12-28T09:00:35.387Z,10.60
2017-12-28T09:03:03.273Z,9.27
2017-12-28T09:05:31.135Z,15.60
2017-12-28T09:07:59.026Z,13.07
2017-12-28T09:10:26.868Z,22.40
2017-12-28T09:12:54.738Z,30.02
2017-12-28T09:15:22.592Z,12.35
2017-12-28T09:17:50.429Z,10.68
2017-12-28T09:20:19.464Z,11.90
2017-12-28T09:22:47.304Z,25.67
2017-12-28T09:25:15.172Z,7.93
2017-12-28T09:27:44.735Z,14.18
2017-12-28T09:30:20.617Z,10.07
2017-12-28T09:35:30.652Z,7.25
2017-12-28T09:37:58.537Z,11.30
2017-12-28T09:40:26.396Z,7.03
2017-12-28T09:42:55.091Z,21.23
2017-12-28T09:45:23.000Z,7.80
2017-12-28T09:47:50.871Z,12.40
2017-12-28T09:50:18.736Z,16.92
2017-12-28T09:52:47.106Z,19.40
2017-12-28T09:55:14.954Z,12.73
2017-12-28T09:57:42.783Z,16.27
2017-12-28T10:00:10.672Z,15.50
2017-12-28T10:02:38.511Z,13.30
2017-12-28T10:07:57.384Z,8.30
2017-12-28T10:10:25.236Z,12.23
2017-12-28T10:12:53.099Z,11.30
2017-12-28T10:15:20.976Z,14.55
2017-12-28T10:17:48.816Z,14.00
2017-12-28T10:20:16.698Z,9.43
2017-12-28T10:22:44.540Z,25.48
2017-12-28T10:25:12.416Z,3.00
2017-12-28T10:27:40.268Z,10.35
2017-12-28T10:30:08.147Z,15.05
2017-12-28T10:32:36.097Z,12.98
2017-12-28T10:35:03.921Z,12.35
2017-12-28T10:37:31.785Z,11.15
2017-12-28T10:39:59.683Z,24.73
2017-12-28T10:42:27.528Z,16.37
2017-12-28T10:44:55.395Z,11.18
2017-12-28T10:47:23.315Z,17.27
2017-12-28T10:49:51.225Z,17.55
2017-12-28T10:52:19.135Z,20.52
2017-12-28T10:54:46.977Z,22.67
2017-12-28T10:57:14.843Z,21.75
2017-12-28T10:59:42.740Z,7.90
2017-12-28T11:04:44.453Z,18.62
2017-12-28T11:09:47.076Z,17.00
2017-12-28T11:15:04.104Z,10.80
2017-12-28T11:17:36.093Z,11.93
2017-12-28T11:20:03.968Z,16.52
2017-12-28T11:22:31.827Z,12.35
2017-12-28T11:24:59.658Z,25.73
2017-12-28T11:27:27.495Z,7.93
2017-12-28T11:29:55.336Z,15.80
2017-12-28T11:32:23.223Z,10.23
2017-12-28T11:34:51.096Z,23.45
2017-12-28T11:37:18.925Z,18.65
2017-12-28T11:39:46.784Z,23.07
2017-12-28T11:42:14.694Z,17.60
2017-12-28T11:44:42.564Z,13.82
2017-12-28T11:47:10.429Z,5.93
2017-12-28T11:49:38.267Z,14.83
2017-12-28T11:52:06.122Z,16.83
2017-12-28T11:54:35.979Z,17.75
2017-12-28T11:57:09.783Z,19.73
2017-12-28T11:59:37.656Z,19.15
2017-12-28T12:02:07.436Z,19.58
2017-12-28T12:04:41.375Z,11.00
2017-12-28T12:07:11.099Z,21.42
2017-12-28T12:09:52.886Z,16.25
2017-12-28T12:12:20.777Z,26.17
2017-12-28T12:14:48.623Z,16.02
2017-12-28T12:17:16.478Z,6.03
2017-12-28T12:19:44.343Z,21.93
2017-12-28T12:22:13.784Z,14.30
2017-12-28T12:24:41.649Z,18.50
2017-12-28T12:27:09.496Z,16.90
2017-12-28T12:29:37.384Z,17.73
2017-12-28T12:32:05.240Z,19.02
2017-12-28T12:34:33.083Z,21.77
2017-12-28T12:37:00.956Z,22.93
2017-12-28T12:39:28.783Z,21.25
2017-12-28T12:41:56.647Z,36.67
2017-12-28T12:44:24.516Z,20.88
2017-12-28T12:46:52.363Z,12.50
2017-12-28T12:49:20.231Z,12.57
2017-12-28T12:51:48.056Z,16.20
2017-12-28T12:54:15.902Z,10.65
2017-12-28T12:56:43.752Z,7.25
2017-12-28T12:59:11.619Z,10.95
2017-12-28T13:01:39.472Z,12.10
2017-12-28T13:04:07.345Z,17.58
2017-12-28T13:06:35.171Z,15.45
2017-12-28T13:09:03.106Z,7.62
2017-12-28T13:11:30.996Z,9.80
2017-12-28T13:13:58.837Z,9.93
2017-12-28T13:16:26.700Z,10.93
2017-12-28T13:18:54.540Z,9.50
2017-12-28T13:21:22.408Z,11.77
2017-12-28T13:23:50.270Z,10.15
2017-12-28T13:26:18.138Z,10.02
2017-12-28T13:28:46.005Z,15.18
2017-12-28T13:31:13.863Z,8.85
2017-12-28T13:33:41.722Z,14.30
2017-12-28T13:36:09.595Z,8.82
2017-12-28T13:38:37.525Z,10.02
2017-12-28T13:41:05.381Z,15.45
2017-12-28T13:43:33.300Z,16.92
2017-12-28T13:46:01.188Z,5.37
2017-12-28T13:48:29.042Z,8.73
2017-12-28T13:50:56.881Z,9.57
2017-12-28T13:53:24.717Z,11.80
2017-12-28T13:55:52.576Z,7.03
2017-12-28T13:58:20.456Z,30.65
2017-12-28T14:00:48.285Z,21.10
2017-12-28T14:03:16.132Z,6.80
2017-12-28T14:05:43.988Z,17.05
2017-12-28T14:08:11.868Z,9.60
2017-12-28T14:10:39.721Z,8.10
2017-12-28T14:13:08.717Z,6.18
2017-12-28T14:15:36.620Z,17.10
2017-12-28T14:18:04.472Z,8.35
2017-12-28T14:20:32.309Z,10.23
2017-12-28T14:23:00.198Z,12.50
2017-12-28T14:25:28.051Z,6.57
2017-12-28T14:27:55.915Z,9.77
2017-12-28T14:30:23.728Z,6.32
2017-12-28T14:32:51.618Z,25.67
2017-12-28T14:35:19.502Z,7.37
2017-12-28T14:37:48.145Z,15.32
2017-12-28T14:40:16.011Z,8.60
2017-12-28T14:42:43.855Z,16.40
2017-12-28T14:45:11.712Z,9.52
2017-12-28T14:47:39.565Z,8.75
2017-12-28T14:50:07.420Z,10.35
2017-12-28T14:52:35.263Z,11.40
2017-12-28T14:55:03.111Z,4.72
2017-12-28T14:57:31.060Z,13.48
2017-12-28T14:59:58.906Z,19.42
2017-12-28T15:02:26.751Z,23.08
2017-12-28T15:04:54.613Z,7.40
2017-12-28T15:07:22.463Z,10.52
2017-12-28T15:09:50.320Z,7.97
2017-12-28T15:12:18.196Z,9.05
2017-12-28T15:14:46.486Z,12.23
2017-12-28T15:17:14.312Z,8.52
2017-12-28T15:19:42.172Z,8.25
2017-12-28T15:22:10.062Z,8.73
2017-12-28T15:24:38.010Z,8.35
2017-12-28T15:27:05.917Z,12.85
2017-12-28T15:29:34.177Z,6.87
2017-12-28T15:32:02.146Z,7.62
2017-12-28T15:34:30.012Z,9.75
2017-12-28T15:36:57.888Z,12.63
2017-12-28T15:39:25.733Z,15.10
2017-12-28T15:41:53.622Z,13.18
2017-12-28T15:44:21.515Z,13.30
2017-12-28T15:46:49.416Z,5.85
2017-12-28T15:49:17.350Z,20.48
2017-12-28T15:51:45.221Z,10.73
2017-12-28T15:54:13.080Z,7.53
2017-12-28T15:56:40.921Z,8.35
2017-12-28T15:59:08.811Z,5.65
2017-12-28T16:01:36.659Z,11.70
2017-12-28T16:04:04.504Z,4.82
2017-12-28T16:06:32.343Z,3.28
2017-12-28T16:09:00.176Z,9.57
2017-12-28T16:11:28.037Z,7.00
2017-12-28T16:13:55.908Z,6.57
2017-12-28T16:16:23.771Z,10.88
2017-12-28T16:18:51.652Z,11.43
2017-12-28T16:21:19.508Z,14.70
2017-12-28T16:23:47.396Z,5.10
2017-12-28T16:26:15.276Z,6.85
2017-12-28T16:28:43.144Z,4.18
2017-12-28T16:31:11.000Z,4.05
2017-12-28T16:33:38.851Z,5.35
2017-12-28T16:36:06.763Z,2.75
2017-12-28T16:38:34.684Z,8.88
2017-12-28T16:41:02.532Z,5.90
2017-12-28T16:43:30.375Z,7.10
2017-12-28T16:45:58.700Z,4.07
2017-12-28T16:48:26.585Z,12.85
2017-12-28T16:50:54.466Z,2.53
2017-12-28T16:53:22.352Z,7.82
2017-12-28T16:55:50.200Z,8.13
2017-12-28T16:58:18.088Z,10.07
2017-12-28T17:00:45.954Z,5.28
2017-12-28T17:03:13.834Z,14.38
2017-12-28T17:05:41.686Z,8.68
2017-12-28T17:08:09.560Z,7.60
2017-12-28T17:10:37.416Z,11.27
2017-12-28T17:13:05.278Z,3.70
2017-12-28T17:15:33.164Z,7.12
2017-12-28T17:18:01.013Z,4.43
2017-12-28T17:20:28.879Z,7.37
2017-12-28T17:22:56.716Z,5.25
2017-12-28T17:25:24.630Z,6.43
2017-12-28T17:27:52.492Z,7.62
2017-12-28T17:30:20.357Z,6.28
2017-12-28T17:32:48.204Z,11.40
2017-12-28T17:35:16.103Z,12.25
2017-12-28T17:37:43.952Z,5.43
2017-12-28T17:40:11.811Z,7.53
2017-12-28T17:42:39.672Z,5.62
2017-12-28T17:45:07.536Z,11.82
2017-12-28T17:47:35.387Z,6.20
2017-12-28T17:50:03.252Z,7.53
2017-12-28T17:52:31.134Z,5.25
2017-12-28T17:54:58.966Z,11.02
2017-12-28T17:57:26.809Z,13.07
2017-12-28T17:59:54.668Z,4.18
2017-12-28T18:02:22.536Z,6.75
2017-12-28T18:04:50.392Z,4.90
2017-12-28T18:07:18.241Z,12.52
2017-12-28T18:09:46.106Z,7.65
2017-12-28T18:12:13.973Z,7.97
2017-12-28T18:14:41.820Z,10.45
2017-12-28T18:17:09.684Z,10.73
2017-12-28T18:19:37.528Z,8.98
2017-12-28T18:22:05.428Z,8.75
2017-12-28T18:24:33.301Z,19.02
2017-12-28T18:27:01.176Z,7.95
2017-12-28T18:29:29.035Z,17.45
2017-12-28T18:31:56.881Z,20.62
2017-12-28T18:34:25.030Z,12.32
2017-12-28T18:36:52.999Z,30.00
2017-12-28T18:39:20.908Z,14.13
2017-12-28T18:41:48.758Z,10.60
2017-12-28T18:44:16.604Z,13.15
2017-12-28T18:46:44.528Z,9.45
2017-12-28T18:49:12.364Z,12.90
2017-12-28T18:51:40.235Z,15.10
2017-12-28T18:54:08.101Z,16.50
2017-12-28T18:56:35.967Z,15.68
2017-12-28T18:59:03.992Z,15.48
2017-12-28T19:01:31.891Z,13.20
2017-12-28T19:03:59.770Z,19.83
2017-12-28T19:06:27.640Z,12.20
2017-12-28T19:08:55.602Z,15.90
2017-12-28T19:11:23.467Z,15.55
2017-12-28T19:13:51.292Z,15.57
2017-12-28T19:16:19.157Z,14.52
2017-12-28T19:18:47.028Z,25.92
2017-12-28T19:21:14.920Z,15.52
2017-12-28T19:23:42.769Z,16.37
2017-12-28T19:26:10.670Z,8.65
2017-12-28T19:28:38.486Z,24.45
2017-12-28T19:31:06.310Z,18.45
2017-12-28T19:33:34.116Z,22.23
2017-12-28T19:36:01.944Z,15.82
2017-12-28T19:38:29.801Z,15.93
2017-12-28T19:40:57.660Z,24.55
2017-12-28T19:43:25.475Z,15.38
2017-12-28T19:45:53.381Z,17.33
2017-12-28T19:48:21.207Z,10.48
2017-12-28T19:50:49.063Z,7.25
2017-12-28T19:53:16.895Z,5.32
2017-12-28T19:55:44.782Z,15.10
2017-12-28T19:58:12.627Z,6.22
2017-12-28T20:00:40.477Z,16.80
2017-12-28T20:03:08.346Z,10.32
2017-12-28T20:05:36.181Z,7.25
2017-12-28T20:08:04.032Z,9.82
2017-12-28T20:10:31.908Z,10.90
2017-12-28T20:12:59.787Z,8.82
2017-12-28T20:15:27.643Z,12.50
2017-12-28T20:17:55.491Z,12.10
2017-12-28T20:20:23.359Z,24.35
2017-12-28T20:22:52.013Z,16.10
2017-12-28T20:25:19.968Z,14.13
2017-12-28T20:27:47.880Z,15.45
2017-12-28T20:30:15.692Z,10.07
2017-12-28T20:32:43.648Z,13.65
2017-12-28T20:35:11.530Z,8.40
2017-12-28T20:37:39.395Z,6.90
2017-12-28T20:40:07.253Z,10.25
2017-12-28T20:42:35.115Z,4.70
2017-12-28T20:45:03.011Z,8.73
2017-12-28T20:47:30.857Z,11.93
2017-12-28T20:49:58.712Z,15.13
2017-12-28T20:52:26.610Z,5.93
2017-12-28T20:54:54.477Z,9.35
2017-12-28T20:57:22.313Z,8.98
2017-12-28T20:59:50.188Z,6.97
2017-12-28T21:02:18.045Z,11.85
2017-12-28T21:04:45.898Z,2.85
2017-12-28T21:07:13.773Z,15.40
2017-12-28T21:09:41.656Z,4.95
2017-12-28T21:12:09.675Z,6.18
2017-12-28T21:14:37.536Z,7.87
2017-12-28T21:17:05.415Z,11.18
2017-12-28T21:19:33.241Z,8.60
2017-12-28T21:22:01.996Z,7.45
2017-12-28T21:24:29.854Z,12.88
2017-12-28T21:26:58.148Z,11.70
2017-12-28T21:29:26.020Z,15.20
2017-12-28T21:31:53.869Z,13.98
2017-12-28T21:34:21.736Z,26.25
2017-12-28T21:36:49.575Z,20.27
2017-12-28T21:39:17.420Z,14.40
2017-12-28T21:41:45.262Z,15.57
2017-12-28T21:44:13.090Z,12.57
2017-12-28T21:46:40.935Z,13.60
2017-12-28T21:49:08.731Z,15.30
2017-12-28T21:51:36.589Z,12.80
2017-12-28T21:54:04.419Z,9.73
2017-12-28T21:56:32.289Z,13.77
2017-12-28T21:59:00.144Z,12.80
2017-12-28T22:01:27.972Z,20.67
2017-12-28T22:03:55.840Z,17.05
2017-12-28T22:06:24.708Z,15.30
2017-12-28T22:08:52.595Z,25.50
2017-12-28T22:11:20.452Z,15.18
2017-12-28T22:13:48.302Z,10.18
2017-12-28T22:16:16.128Z,11.48
2017-12-28T22:18:43.951Z,14.35
2017-12-28T22:21:11.780Z,13.88
2017-12-28T22:23:39.607Z,10.30
2017-12-28T22:26:07.489Z,19.50
2017-12-28T22:28:35.319Z,9.93
2017-12-28T22:31:03.158Z,26.50
2017-12-28T22:33:32.863Z,12.95
2017-12-28T22:36:01.906Z,14.52
2017-12-28T22:38:29.796Z,12.00
2017-12-28T22:40:58.317Z,12.75
2017-12-28T22:43:26.182Z,25.80
2017-12-28T22:45:54.043Z,19.83
2017-12-28T22:48:21.889Z,23.30
2017-12-28T22:50:49.727Z,20.80
2017-12-28T22:53:17.566Z,10.02
2017-12-28T22:55:45.406Z,11.35
2017-12-28T22:58:13.270Z,12.50
2017-12-28T23:00:41.829Z,14.77
2017-12-28T23:03:09.675Z,11.85
2017-12-28T23:05:37.500Z,21.55
2017-12-28T23:08:05.343Z,14.75
2017-12-28T23:10:33.191Z,12.00
2017-12-28T23:13:00.995Z,9.52
2017-12-28T23:15:28.811Z,19.05
2017-12-28T23:17:56.631Z,21.00
2017-12-28T23:20:25.302Z,17.58
2017-12-28T23:22:53.107Z,15.40
2017-12-28T23:25:21.020Z,20.85
2017-12-28T23:27:48.839Z,14.98
2017-12-28T23:30:16.649Z,15.95
2017-12-28T23:32:44.509Z,22.27
2017-12-28T23:35:12.335Z,15.85
2017-12-28T23:37:40.203Z,15.85
2017-12-28T23:40:08.272Z,14.82
2017-12-28T23:42:36.183Z,17.10
2017-12-28T23:45:04.048Z,14.50
2017-12-28T23:47:31.873Z,24.40
2017-12-28T23:49:59.736Z,17.37
2017-12-28T23:52:27.548Z,23.17
2017-12-28T23:54:55.380Z,19.05
2017-12-28T23:57:23.248Z,25.75
2017-12-28T23:59:51.104Z,21.40
